createdAt,value
2023-05-14T00:02:01.619Z,15.86
2023-05-14T00:07:01.630Z,15.81
2023-05-14T00:12:01.632Z,15.75
2023-05-14T00:17:01.623Z,15.66
2023-05-14T00:22:01.635Z,15.57
2023-05-14T00:27:01.626Z,15.4
2023-05-14T00:32:01.638Z,15.16
2023-05-14T00:37:01.629Z,14.97
2023-05-14T00:42:01.641Z,14.79
2023-05-14T00:47:01.642Z,14.7
2023-05-14T00:52:01.633Z,14.59
2023-05-14T00:57:01.645Z,14.52
2023-05-14T01:02:01.636Z,14.43
2023-05-14T01:07:01.647Z,14.31
2023-05-14T01:12:01.649Z,14.3
2023-05-14T01:17:01.650Z,14.24
2023-05-14T01:22:01.653Z,14.25
2023-05-14T01:27:01.643Z,14.32
2023-05-14T01:32:01.654Z,14.44
2023-05-14T01:37:01.645Z,14.55
2023-05-14T01:42:01.657Z,14.67
2023-05-14T01:47:01.658Z,14.74
2023-05-14T01:52:01.650Z,14.81
2023-05-14T01:57:01.661Z,14.64
2023-05-14T02:02:01.652Z,14.52
2023-05-14T02:07:01.664Z,14.44
2023-05-14T02:12:01.665Z,14.49
2023-05-14T02:17:01.666Z,14.6
2023-05-14T02:22:01.669Z,14.66
2023-05-14T02:27:01.659Z,14.66
2023-05-14T02:32:01.670Z,14.46
2023-05-14T02:37:01.662Z,14.41
2023-05-14T02:42:01.673Z,14.27
2023-05-14T02:47:01.674Z,14.23
2023-05-14T02:52:01.666Z,14.22
2023-05-14T02:57:01.677Z,14.33
2023-05-14T03:02:01.668Z,14.52
2023-05-14T03:07:01.680Z,14.58
2023-05-14T03:12:01.671Z,14.49
2023-05-14T03:17:02.677Z,14.58
2023-05-14T03:22:01.708Z,14.62
2023-05-14T03:27:01.675Z,14.71
2023-05-14T03:32:01.691Z,14.72
2023-05-14T03:37:01.678Z,14.81
2023-05-14T03:42:01.689Z,14.73
2023-05-14T03:47:01.691Z,14.81
2023-05-14T03:52:01.692Z,14.76
2023-05-14T03:57:01.693Z,14.64
2023-05-14T04:02:01.685Z,14.6
2023-05-14T04:07:01.697Z,14.67
2023-05-14T04:12:01.687Z,14.59
2023-05-14T04:17:08.664Z,14.73
2023-05-14T04:22:01.701Z,14.79
2023-05-14T04:27:01.692Z,14.9
2023-05-14T04:32:01.703Z,14.89
2023-05-14T04:37:01.694Z,15.04
2023-05-14T04:42:01.707Z,15.03
2023-05-14T04:47:01.707Z,15.12
2023-05-14T04:52:01.709Z,15.26
2023-05-14T04:57:01.711Z,15.43
2023-05-14T05:02:01.701Z,15.43
2023-05-14T05:07:01.713Z,15.62
2023-05-14T05:12:01.704Z,15.69
2023-05-14T05:17:14.667Z,15.64
2023-05-14T05:22:01.717Z,15.66
2023-05-14T05:27:01.707Z,15.51
2023-05-14T05:32:01.720Z,15.93
2023-05-14T05:37:01.711Z,16.2
2023-05-14T05:42:01.724Z,16.5
2023-05-14T05:47:01.724Z,16.83
2023-05-14T05:52:01.727Z,17.24
2023-05-14T05:57:01.791Z,17.58
2023-05-14T06:02:01.719Z,17.6
2023-05-14T06:07:01.774Z,17.52
2023-05-14T06:12:01.722Z,17.59
2023-05-14T06:17:20.688Z,18.27
2023-05-14T06:22:01.735Z,18.91
2023-05-14T06:27:01.762Z,19.25
2023-05-14T06:32:01.738Z,19.6
2023-05-14T06:37:01.730Z,20.21
2023-05-14T06:42:01.743Z,20.57
2023-05-14T06:47:01.734Z,20.66
2023-05-14T06:52:01.746Z,20.39
2023-05-14T06:57:01.747Z,20.34
2023-05-14T07:02:01.739Z,20.6
2023-05-14T07:07:01.753Z,20.95
2023-05-14T07:12:01.743Z,20.95
2023-05-14T07:17:26.671Z,21.06
2023-05-14T07:22:01.756Z,20.95
2023-05-14T07:27:01.759Z,21.11
2023-05-14T07:32:01.760Z,20.84
2023-05-14T07:37:01.752Z,20.81
2023-05-14T07:42:01.765Z,21.26
2023-05-14T07:47:01.756Z,21.69
2023-05-14T07:52:01.769Z,21.59
2023-05-14T07:57:01.770Z,21.48
2023-05-14T08:02:01.761Z,21.7
2023-05-14T08:07:01.774Z,21.65
2023-05-14T08:12:01.766Z,21.56
2023-05-14T08:17:16.215Z,21.23
2023-05-14T08:22:01.779Z,21.26
2023-05-14T08:27:01.782Z,21.36
2023-05-14T08:32:01.785Z,23.5
2023-05-14T08:37:01.775Z,24.28
2023-05-14T08:42:01.787Z,23.37
2023-05-14T08:47:01.779Z,23.28
2023-05-14T08:52:01.793Z,23.53
2023-05-14T08:57:01.795Z,24.1
2023-05-14T09:02:01.861Z,25.96
2023-05-14T09:07:01.800Z,29.43
2023-05-14T09:12:01.791Z,29.09
2023-05-14T09:17:16.233Z,28.65
2023-05-14T09:22:01.795Z,30.6
2023-05-14T09:27:18.286Z,29.16
2023-05-14T09:32:01.811Z,28.22
2023-05-14T09:37:01.803Z,27.74
2023-05-14T09:42:01.815Z,26.73
2023-05-14T09:47:01.808Z,25.35
2023-05-14T09:52:01.861Z,24.3
2023-05-14T09:57:01.822Z,25.7
2023-05-14T10:02:01.826Z,27.56
2023-05-14T10:07:01.827Z,26.8
2023-05-14T10:12:01.820Z,25.74
2023-05-14T10:17:01.833Z,27.69
2023-05-14T10:22:01.824Z,29.29
2023-05-14T10:27:01.838Z,30.03
2023-05-14T10:32:01.839Z,29.04
2023-05-14T10:37:01.832Z,28.16
2023-05-14T10:42:01.888Z,27.87
2023-05-14T10:47:01.837Z,27.75
2023-05-14T10:52:01.850Z,27.38
2023-05-14T10:57:01.852Z,27.71
2023-05-14T11:02:01.855Z,28.54
2023-05-14T11:07:01.857Z,30.31
2023-05-14T11:12:01.850Z,29.02
2023-05-14T11:17:01.863Z,28.62
2023-05-14T11:22:01.855Z,28.02
2023-05-14T11:27:01.868Z,27.69
2023-05-14T11:32:01.870Z,28.33
2023-05-14T11:37:01.862Z,27.12
2023-05-14T11:42:01.877Z,26.38
2023-05-14T11:47:01.867Z,26.67
2023-05-14T11:52:01.880Z,28.5
2023-05-14T11:57:01.882Z,29.03
2023-05-14T12:02:01.885Z,29.99
2023-05-14T12:07:01.889Z,32.58
2023-05-14T12:12:01.880Z,31.89
2023-05-14T12:17:01.892Z,28.29
2023-05-14T12:22:01.885Z,27.23
2023-05-14T12:27:01.898Z,26.04
2023-05-14T12:32:01.900Z,26.31
2023-05-14T12:37:01.927Z,25.89
2023-05-14T12:42:01.906Z,25.85
2023-05-14T12:47:01.897Z,25.66
2023-05-14T12:52:01.910Z,25.98
2023-05-14T12:57:01.912Z,25.79
2023-05-14T13:02:01.915Z,25.16
2023-05-14T13:07:01.918Z,24.97
2023-05-14T13:12:01.909Z,26.86
2023-05-14T13:17:01.923Z,29.92
2023-05-14T13:22:01.914Z,31.18
2023-05-14T13:27:01.927Z,30.99
2023-05-14T13:32:01.929Z,30.79
2023-05-14T13:37:01.932Z,30.58
2023-05-14T13:42:01.936Z,30.28
2023-05-14T13:47:01.926Z,30.96
2023-05-14T13:52:01.940Z,30.12
2023-05-14T13:57:01.931Z,29.89
2023-05-14T14:02:01.945Z,30.55
2023-05-14T14:07:01.948Z,30.55
2023-05-14T14:12:01.939Z,30.94
2023-05-14T14:17:01.954Z,30.87
2023-05-14T14:22:01.944Z,30.65
2023-05-14T14:27:01.958Z,30.12
2023-05-14T14:32:01.959Z,30.09
2023-05-14T14:37:01.963Z,30
2023-05-14T14:42:01.966Z,28.99
2023-05-14T14:47:01.957Z,28.97
2023-05-14T14:52:01.970Z,28.78
2023-05-14T14:57:01.962Z,28.82
2023-05-14T15:02:01.976Z,28.66
2023-05-14T15:07:01.977Z,28.06
2023-05-14T15:12:01.969Z,28.1
2023-05-14T15:17:01.984Z,28.05
2023-05-14T15:22:01.975Z,27.64
2023-05-14T15:27:01.988Z,27.57
2023-05-14T15:32:01.980Z,27.76
2023-05-14T15:37:01.993Z,28.02
2023-05-14T15:42:02.019Z,28.31
2023-05-14T15:47:01.987Z,28.33
2023-05-14T15:52:02.004Z,27.88
2023-05-14T15:57:01.992Z,27.67
2023-05-14T16:02:02.006Z,27.26
2023-05-14T16:07:02.007Z,27.57
2023-05-14T16:12:02.010Z,27.02
2023-05-14T16:17:02.014Z,26.62
2023-05-14T16:22:02.004Z,27.05
2023-05-14T16:27:02.017Z,27
2023-05-14T16:32:02.009Z,26.74
2023-05-14T16:37:02.022Z,25.89
2023-05-14T16:42:02.025Z,25.27
2023-05-14T16:47:02.016Z,24.91
2023-05-14T16:52:02.030Z,24.6
2023-05-14T16:57:02.021Z,23.82
2023-05-14T17:02:02.033Z,23.91
2023-05-14T17:07:02.036Z,23.93
2023-05-14T17:12:02.037Z,23.95
2023-05-14T17:17:02.041Z,23.84
2023-05-14T17:22:02.032Z,23.61
2023-05-14T17:27:02.045Z,23.15
2023-05-14T17:32:02.036Z,22.54
2023-05-14T17:37:02.048Z,22.38
2023-05-14T17:42:02.051Z,22.4
2023-05-14T17:47:02.043Z,22.18
2023-05-14T17:52:02.057Z,22.16
2023-05-14T17:57:02.047Z,22
2023-05-14T18:02:02.059Z,22.01
2023-05-14T18:07:02.061Z,22.05
2023-05-14T18:12:02.063Z,22.1
2023-05-14T18:17:02.130Z,22.32
2023-05-14T18:22:02.057Z,22.14
2023-05-14T18:27:02.113Z,21.94
2023-05-14T18:32:02.061Z,21.92
2023-05-14T18:37:02.073Z,21.58
2023-05-14T18:42:02.075Z,21.35
2023-05-14T18:47:02.119Z,21.19
2023-05-14T18:52:02.081Z,20.77
2023-05-14T18:57:02.071Z,20.37
2023-05-14T19:02:02.083Z,19.99
2023-05-14T19:07:02.075Z,19.73
2023-05-14T19:12:02.087Z,19.56
2023-05-14T19:17:02.089Z,19.41
2023-05-14T19:22:02.081Z,19.14
2023-05-14T19:27:02.094Z,18.98
2023-05-14T19:32:02.084Z,18.7
2023-05-14T19:37:02.096Z,18.68
2023-05-14T19:42:02.098Z,18.54
2023-05-14T19:47:02.100Z,18.54
2023-05-14T19:52:02.102Z,18.54
2023-05-14T19:57:02.093Z,18.5
2023-05-14T20:02:02.106Z,18.46
2023-05-14T20:07:02.097Z,18.44
2023-05-14T20:12:02.108Z,18.41
2023-05-14T20:17:02.110Z,18.37
2023-05-14T20:22:02.102Z,18.51
2023-05-14T20:27:02.114Z,18.42
2023-05-14T20:32:02.105Z,18.37
2023-05-14T20:37:02.117Z,18.16
2023-05-14T20:42:02.119Z,17.73
2023-05-14T20:47:02.121Z,17.62
2023-05-14T20:52:02.123Z,17.62
2023-05-14T20:57:02.114Z,17.83
2023-05-14T21:02:02.178Z,17.93
2023-05-14T21:07:02.117Z,17.91
2023-05-14T21:12:02.171Z,17.64
2023-05-14T21:17:02.131Z,17.44
2023-05-14T21:22:02.132Z,17.29
2023-05-14T21:27:02.134Z,17.37
2023-05-14T21:32:02.126Z,17.37
2023-05-14T21:37:02.137Z,17.15
2023-05-14T21:42:02.129Z,16.78
2023-05-14T21:47:02.140Z,16.74
2023-05-14T21:52:02.142Z,16.82
2023-05-14T21:57:02.134Z,16.82
2023-05-14T22:02:02.147Z,16.69
2023-05-14T22:07:02.137Z,16.37
2023-05-14T22:12:02.148Z,16.54
2023-05-14T22:17:02.150Z,16.68
2023-05-14T22:22:02.151Z,16.48
2023-05-14T22:27:02.153Z,16.46
2023-05-14T22:32:02.145Z,16.43
2023-05-14T22:37:02.157Z,16.45
2023-05-14T22:42:02.148Z,16.71
2023-05-14T22:47:02.159Z,16.75
2023-05-14T22:52:02.161Z,16.74
2023-05-14T22:57:02.152Z,16.48
2023-05-14T23:02:02.166Z,16.48
2023-05-14T23:07:02.155Z,16.42
2023-05-14T23:12:02.167Z,16.26
2023-05-14T23:17:02.169Z,16.06
2023-05-14T23:22:02.170Z,15.73
2023-05-14T23:27:02.172Z,15.8
2023-05-14T23:32:02.163Z,16.07
2023-05-14T23:37:02.227Z,16.21
2023-05-14T23:42:02.166Z,16.23
2023-05-14T23:47:02.178Z,16.37
2023-05-14T23:52:02.180Z,16.6
2023-05-14T23:57:02.171Z,16.54
